Time;durP1;ratioP1;P1;durP2;ratioP2;P2;SDS_P1;SDS_P2;PMS_P1;PMS_P2;Temp;Humidity;BMP_temperature;BMP_pressure;BME280_temperature;BME280_humidity;BME280_pressure;Samples;Min_cycle;Max_cycle;Signal;HPM_P1;HPM_P2
2023/07/29 00:01:49;;;;;;;10.68;6.82;;;;;;;-144.73;100.00;54487.75;4956050;28;20498;-71
2023/07/29 00:04:15;;;;;;;9.98;6.70;;;;;;;-144.73;100.00;54485.69;4936311;28;20413;-71
2023/07/29 00:06:40;;;;;;;12.85;6.70;;;;;;;-144.73;100.00;54485.69;4945848;28;20077;-71
2023/07/29 00:09:05;;;;;;;13.77;7.68;;;;;;;-144.73;100.00;54498.00;4981266;28;20122;-71
2023/07/29 00:11:33;;;;;;;10.65;6.72;;;;;;;-144.73;100.00;54504.16;4989106;28;20087;-71
2023/07/29 00:14:00;;;;;;;8.77;6.28;;;;;;;-144.73;100.00;54452.84;5009649;28;20028;-71
2023/07/29 00:16:25;;;;;;;12.45;7.85;;;;;;;-144.73;100.00;54473.38;4955844;28;20033;-71
2023/07/29 00:18:51;;;;;;;10.25;6.65;;;;;;;-144.73;100.00;54506.22;4973359;28;20041;-71
2023/07/29 00:21:16;;;;;;;9.35;6.90;;;;;;;-144.73;100.00;54473.38;4933713;28;20035;-71
2023/07/29 00:23:42;;;;;;;10.70;6.93;;;;;;;-144.73;100.00;54524.69;4955227;28;20032;-71
2023/07/29 00:26:07;;;;;;;11.80;6.35;;;;;;;-144.73;100.00;54493.91;4950410;28;20148;-71
2023/07/29 00:28:32;;;;;;;13.93;7.35;;;;;;;-144.73;100.00;54461.06;4937569;28;20070;-72
2023/07/29 00:30:58;;;;;;;10.50;6.85;;;;;;;-144.73;100.00;54493.91;4950104;28;20052;-71
2023/07/29 00:33:23;;;;;;;10.90;6.80;;;;;;;-144.73;100.00;54491.84;4985407;28;20028;-71
2023/07/29 00:35:49;;;;;;;10.38;6.88;;;;;;;-144.73;100.00;54489.81;4999006;28;20040;-72
2023/07/29 00:38:14;;;;;;;10.23;6.57;;;;;;;-144.73;100.00;54514.44;4954535;28;20033;-71
2023/07/29 00:40:39;;;;;;;13.95;7.57;;;;;;;-144.73;100.00;54502.13;4998469;28;20081;-72
2023/07/29 00:43:05;;;;;;;12.98;6.97;;;;;;;-144.73;100.00;54481.59;4982488;28;20032;-72
2023/07/29 00:45:31;;;;;;;7.88;6.05;;;;;;;-144.73;100.00;54502.13;5027149;28;20029;-72
2023/07/29 00:47:57;;;;;;;12.90;7.18;;;;;;;-144.73;100.00;54459.00;4969829;28;20035;-72
2023/07/29 00:50:22;;;;;;;12.68;6.53;;;;;;;-144.73;100.00;54489.81;4952133;28;20580;-71
2023/07/29 00:52:49;;;;;;;11.68;6.35;;;;;;;-144.73;100.00;54522.63;4953831;28;20050;-72
2023/07/29 00:55:14;;;;;;;16.25;8.10;;;;;;;-144.73;100.00;54502.13;4960384;28;20033;-71
2023/07/29 00:57:42;;;;;;;10.02;6.88;;;;;;;-144.73;100.00;54448.75;4957780;28;20632;-72
2023/07/29 01:00:08;;;;;;;11.23;6.72;;;;;;;-144.73;100.00;54473.38;4967088;28;20009;-72
2023/07/29 01:02:34;;;;;;;15.80;7.63;;;;;;;-144.73;100.00;54514.44;4964179;28;20033;-72
2023/07/29 01:05:01;;;;;;;10.23;7.03;;;;;;;-144.73;100.00;54510.31;5019196;28;20025;-71
2023/07/29 01:07:44;;;;;;;12.95;8.38;;;;;;;-144.73;100.00;54518.53;4991277;28;20033;-72
2023/07/29 01:10:26;;;;;;;13.13;7.65;;;;;;;-144.73;100.00;54512.38;4932269;28;20119;-72
2023/07/29 01:13:03;;;;;;;10.63;7.22;;;;;;;-144.73;100.00;54502.13;5032660;28;20034;-72
2023/07/29 01:15:53;;;;;;;10.48;6.40;;;;;;;-144.73;100.00;54452.84;5030127;28;20058;-71
2023/07/29 01:18:23;;;;;;;13.80;7.55;;;;;;;-144.73;100.00;54487.75;4950057;28;20043;-71
2023/07/29 01:20:53;;;;;;;15.68;6.97;;;;;;;-144.73;100.00;54522.63;4961208;28;20039;-72
2023/07/29 01:23:24;;;;;;;13.10;7.32;;;;;;;-144.73;100.00;54465.16;4996831;28;20031;-72
2023/07/29 01:25:49;;;;;;;12.68;8.00;;;;;;;-144.73;100.00;54506.22;4955313;28;20385;-71
2023/07/29 01:28:14;;;;;;;10.98;7.63;;;;;;;-144.73;100.00;54506.22;4939938;28;20029;-71
2023/07/29 01:30:43;;;;;;;14.85;8.20;;;;;;;-144.73;100.00;54510.31;4982554;28;20027;-72
2023/07/29 01:33:24;;;;;;;10.73;7.13;;;;;;;-144.73;100.00;54502.13;5008826;28;20073;-72
2023/07/29 01:35:54;;;;;;;10.80;7.50;;;;;;;-144.73;100.00;54518.53;5001196;28;20074;-72
2023/07/29 01:38:31;;;;;;;11.10;7.38;;;;;;;-144.73;100.00;54506.22;4955387;28;20114;-72
2023/07/29 01:41:07;;;;;;;14.77;7.15;;;;;;;-144.73;100.00;54483.66;4946386;28;20031;-72
2023/07/29 01:43:33;;;;;;;10.23;6.65;;;;;;;-144.73;100.00;54483.66;5028719;28;20478;-71
2023/07/29 01:46:00;;;;;;;11.43;6.80;;;;;;;-144.73;100.00;54522.63;4972270;28;20032;-71
2023/07/29 01:48:27;;;;;;;11.60;8.45;;;;;;;-144.73;100.00;54483.66;4950135;28;20093;-71
2023/07/29 01:50:53;;;;;;;13.20;8.20;;;;;;;-144.73;100.00;54508.28;4990441;28;20029;-71
2023/07/29 01:53:18;;;;;;;11.23;7.35;;;;;;;-144.73;100.00;54481.59;4940376;28;20046;-71
2023/07/29 01:55:44;;;;;;;9.65;7.18;;;;;;;-144.73;100.00;54506.22;4999496;28;20025;-71
2023/07/29 01:58:09;;;;;;;10.48;7.28;;;;;;;-144.73;100.00;54522.63;5003708;28;20480;-71
2023/07/29 02:00:35;;;;;;;13.75;8.60;;;;;;;-144.73;100.00;54491.84;4984091;28;20031;-71
2023/07/29 02:03:00;;;;;;;25.10;9.73;;;;;;;-144.73;100.00;54514.44;4948985;28;20023;-80
2023/07/29 02:05:26;;;;;;;30.13;15.02;;;;;;;-144.73;100.00;54461.06;5018587;28;20085;-84
2023/07/29 02:07:52;;;;;;;23.98;15.13;;;;;;;-144.73;100.00;54502.13;4968699;28;20122;-80
2023/07/29 02:10:17;;;;;;;23.88;14.93;;;;;;;-144.73;100.00;54524.69;5004131;28;20023;-79
2023/07/29 02:12:42;;;;;;;23.20;14.43;;;;;;;-144.73;100.00;54539.06;4971248;28;20099;-79
2023/07/29 02:15:09;;;;;;;35.35;18.70;;;;;;;-144.73;100.00;54502.13;4973231;28;20509;-79
2023/07/29 02:17:35;;;;;;;39.53;18.95;;;;;;;-144.73;100.00;54522.63;5060418;28;20025;-79
2023/07/29 02:20:00;;;;;;;25.98;16.13;;;;;;;-144.73;100.00;54526.75;4989820;28;20028;-80
2023/07/29 02:22:25;;;;;;;26.88;14.85;;;;;;;-144.73;100.00;54514.44;4966789;28;20045;-78
2023/07/29 02:24:51;;;;;;;23.88;14.68;;;;;;;-144.73;100.00;54522.63;4955828;28;20027;-78
2023/07/29 02:27:16;;;;;;;22.27;13.68;;;;;;;-144.73;100.00;54508.28;4977536;28;20130;-78
2023/07/29 02:29:41;;;;;;;28.15;15.95;;;;;;;-144.73;100.00;54514.44;4934854;28;20058;-78
2023/07/29 02:32:07;;;;;;;23.92;14.90;;;;;;;-144.73;100.00;54491.84;4936348;28;20146;-79
2023/07/29 02:34:32;;;;;;;27.38;15.57;;;;;;;-144.73;100.00;54518.53;4940422;28;20031;-79
2023/07/29 02:36:58;;;;;;;22.08;13.50;;;;;;;-144.73;100.00;54530.84;4938994;28;20088;-79
2023/07/29 02:39:23;;;;;;;20.17;12.35;;;;;;;-144.73;100.00;54485.69;4988323;28;20056;-80
2023/07/29 02:41:49;;;;;;;22.48;14.27;;;;;;;-144.73;100.00;54485.69;5051590;28;20036;-78
2023/07/29 02:44:15;;;;;;;36.85;18.02;;;;;;;-144.73;100.00;54518.53;4959185;28;20025;-79
2023/07/29 02:46:40;;;;;;;20.55;13.23;;;;;;;-144.73;100.00;54504.16;4977574;28;20302;-78
2023/07/29 02:49:06;;;;;;;29.45;15.13;;;;;;;-144.73;100.00;54481.59;4947913;28;20024;-78
2023/07/29 02:51:31;;;;;;;33.05;17.35;;;;;;;-144.73;100.00;54493.91;4963645;28;20036;-78
2023/07/29 02:53:56;;;;;;;24.73;13.75;;;;;;;-144.73;100.00;54489.81;4959225;28;20027;-79
2023/07/29 02:56:22;;;;;;;32.17;17.52;;;;;;;-144.73;100.00;54514.44;4949350;28;20042;-78
2023/07/29 02:58:47;;;;;;;29.27;17.63;;;;;;;-144.73;100.00;54479.53;4953875;28;20015;-78
2023/07/29 03:01:13;;;;;;;17.88;13.63;;;;;;;-144.73;100.00;54467.22;5022843;28;20492;-78
2023/07/29 03:03:39;;;;;;;24.70;15.75;;;;;;;-144.73;100.00;54510.31;5037327;28;20027;-79
2023/07/29 03:06:07;;;;;;;32.15;18.10;;;;;;;-144.73;100.00;54506.22;4981929;28;20036;-79
2023/07/29 03:08:33;;;;;;;25.52;16.33;;;;;;;-144.73;100.00;54502.13;4945048;28;20027;-79
2023/07/29 03:11:04;;;;;;;28.48;16.95;;;;;;;-144.73;100.00;54506.22;5034911;28;20032;-79
2023/07/29 03:13:30;;;;;;;36.85;19.90;;;;;;;-144.73;100.00;54522.63;4930830;28;20130;-79
2023/07/29 03:16:04;;;;;;;36.08;21.10;;;;;;;-144.73;100.00;54604.75;5036190;28;20050;-79
2023/07/29 03:18:30;;;;;;;33.10;20.45;;;;;;;-144.73;100.00;54508.28;4929527;28;20448;-79
2023/07/29 03:20:55;;;;;;;45.63;24.42;;;;;;;-144.73;100.00;54567.81;5025419;28;20055;-79
2023/07/29 03:23:21;;;;;;;40.78;19.52;;;;;;;-144.73;100.00;54559.59;4979266;28;20081;-79
2023/07/29 03:25:51;;;;;;;36.95;21.77;;;;;;;-144.73;100.00;54557.53;4992170;28;20514;-79
2023/07/29 03:28:16;;;;;;;47.20;24.02;;;;;;;-144.73;100.00;54516.47;5007979;28;20016;-79
2023/07/29 03:30:42;;;;;;;51.85;23.25;;;;;;;-144.73;100.00;54539.06;4969251;28;20116;-79
2023/07/29 03:33:07;;;;;;;31.83;18.67;;;;;;;-144.73;100.00;54514.44;5044972;28;20015;-79
2023/07/29 03:35:32;;;;;;;50.63;24.35;;;;;;;-144.73;100.00;54498.00;5015699;28;20033;-79
2023/07/29 03:37:58;;;;;;;49.97;23.77;;;;;;;-144.73;100.00;54506.22;5027897;28;20017;-79
2023/07/29 03:40:23;;;;;;;53.38;25.67;;;;;;;-144.73;100.00;54545.22;4942017;28;20027;-79
2023/07/29 03:42:49;;;;;;;42.35;23.60;;;;;;;-144.73;100.00;54547.28;4945986;28;20134;-79
2023/07/29 03:45:14;;;;;;;46.42;23.50;;;;;;;-144.73;100.00;54547.28;4958479;28;20078;-79
2023/07/29 03:47:40;;;;;;;51.03;25.45;;;;;;;-144.73;100.00;54473.38;4941986;28;20118;-79
2023/07/29 03:50:05;;;;;;;59.63;28.90;;;;;;;-144.73;100.00;54498.00;4941572;28;20051;-79
2023/07/29 03:52:31;;;;;;;43.65;23.38;;;;;;;-144.73;100.00;54514.44;4936621;28;20035;-79
2023/07/29 03:54:56;;;;;;;37.92;22.15;;;;;;;-144.73;100.00;54547.28;5036305;28;20023;-79
2023/07/29 03:57:21;;;;;;;53.72;26.10;;;;;;;-144.73;100.00;54502.13;4935499;28;20047;-79
2023/07/29 03:59:47;;;;;;;55.17;26.13;;;;;;;-144.73;100.00;54547.28;4969542;28;20077;-79
2023/07/29 04:02:12;;;;;;;28.58;18.95;;;;;;;-144.73;100.00;54543.16;4951224;28;20920;-79
2023/07/29 04:04:38;;;;;;;46.40;25.65;;;;;;;-144.73;100.00;54477.47;4959128;28;20026;-78
2023/07/29 04:07:03;;;;;;;43.88;24.05;;;;;;;-144.73;100.00;54522.63;4982607;28;20070;-79
2023/07/29 04:09:29;;;;;;;56.78;30.20;;;;;;;-144.73;100.00;54539.06;4975760;28;20119;-79
2023/07/29 04:11:55;;;;;;;61.03;29.42;;;;;;;-144.73;100.00;54551.38;4982877;28;20118;-79
2023/07/29 04:14:20;;;;;;;71.47;33.83;;;;;;;-144.73;100.00;54547.28;4949035;28;20030;-79
2023/07/29 04:16:45;;;;;;;61.30;33.28;;;;;;;-144.73;100.00;54547.28;4944902;28;20050;-79
2023/07/29 04:19:11;;;;;;;70.40;35.45;;;;;;;-144.73;100.00;54502.13;4952430;28;20015;-79
2023/07/29 04:21:36;;;;;;;87.88;38.88;;;;;;;-144.73;100.00;54522.63;4942021;28;20133;-79
2023/07/29 04:24:02;;;;;;;68.72;34.25;;;;;;;-144.73;100.00;54518.53;4979204;28;20031;-79
2023/07/29 04:26:27;;;;;;;74.65;37.15;;;;;;;-144.73;100.00;54518.53;4974953;28;20035;-79
2023/07/29 04:28:52;;;;;;;63.95;32.75;;;;;;;-144.73;100.00;54604.75;4980283;28;20028;-79
2023/07/29 04:31:18;;;;;;;63.13;32.65;;;;;;;-144.73;100.00;54518.53;4944002;28;20040;-80
2023/07/29 04:33:43;;;;;;;57.28;31.70;;;;;;;-144.73;100.00;54557.53;4941960;28;20039;-79
2023/07/29 04:36:09;;;;;;;63.95;34.58;;;;;;;-144.73;100.00;54465.16;4960010;28;20451;-79
2023/07/29 04:38:37;;;;;;;80.40;40.17;;;;;;;-144.73;100.00;54539.06;4976356;28;20031;-79
2023/07/29 04:41:02;;;;;;;74.18;38.53;;;;;;;-144.73;100.00;54539.06;4977137;28;20087;-79
2023/07/29 04:43:30;;;;;;;65.15;37.13;;;;;;;-144.73;100.00;54539.06;4961261;28;20035;-79
2023/07/29 04:45:56;;;;;;;60.65;36.03;;;;;;;-144.73;100.00;54543.16;4938095;28;20038;-79
2023/07/29 04:48:21;;;;;;;84.35;41.22;;;;;;;-144.73;100.00;54489.81;5008306;28;20031;-77
2023/07/29 04:50:47;;;;;;;87.65;45.55;;;;;;;-144.73;100.00;54526.75;4950699;28;20430;-77
2023/07/29 04:53:12;;;;;;;75.25;41.97;;;;;;;-144.73;100.00;54528.81;4937227;28;20046;-77
2023/07/29 04:55:37;;;;;;;89.00;45.90;;;;;;;-144.73;100.00;54518.53;4949807;28;20051;-77
2023/07/29 04:58:03;;;;;;;91.70;45.40;;;;;;;-144.73;100.00;54526.75;4940550;28;20026;-78
2023/07/29 05:00:28;;;;;;;75.43;40.60;;;;;;;-144.73;100.00;54559.59;5030736;28;20027;-77
2023/07/29 05:02:53;;;;;;;84.43;44.08;;;;;;;-144.73;100.00;54543.16;4992617;28;20043;-78
2023/07/29 05:05:19;;;;;;;79.57;43.65;;;;;;;-144.73;100.00;54522.63;4964182;28;20037;-76
2023/07/29 05:07:44;;;;;;;84.40;42.75;;;;;;;-144.73;100.00;54524.69;5015965;28;20031;-77
2023/07/29 05:10:09;;;;;;;85.20;44.25;;;;;;;-144.73;100.00;54522.63;4961427;28;20046;-76
2023/07/29 05:12:35;;;;;;;90.05;46.03;;;;;;;-144.73;100.00;54539.06;4996062;28;20039;-76
2023/07/29 05:15:00;;;;;;;98.07;48.75;;;;;;;-144.73;100.00;54539.06;4991286;28;20457;-77
2023/07/29 05:17:25;;;;;;;85.53;47.45;;;;;;;-144.73;100.00;54539.06;4963800;28;20032;-77
2023/07/29 05:19:51;;;;;;;97.78;50.65;;;;;;;-144.73;100.00;54506.22;4952487;28;20020;-77
2023/07/29 05:22:16;;;;;;;89.32;46.55;;;;;;;-144.73;100.00;54514.44;4950234;28;20032;-77
2023/07/29 05:24:41;;;;;;;92.40;50.17;;;;;;;-144.73;100.00;54604.75;4938634;28;20031;-77
2023/07/29 05:27:08;;;;;;;81.85;47.45;;;;;;;-144.73;100.00;54539.06;4939616;28;20042;-77
2023/07/29 05:29:33;;;;;;;98.00;51.40;;;;;;;-144.73;100.00;54539.06;4963177;28;20025;-77
2023/07/29 05:31:59;;;;;;;86.05;48.65;;;;;;;-144.73;100.00;54518.53;4951197;28;20042;-77
2023/07/29 05:34:24;;;;;;;90.45;50.50;;;;;;;-144.73;100.00;54510.31;4979453;28;20031;-77
2023/07/29 05:36:49;;;;;;;80.05;48.42;;;;;;;-144.73;100.00;54547.28;4989826;28;20029;-77
2023/07/29 05:39:15;;;;;;;78.50;49.20;;;;;;;-144.73;100.00;54543.16;5013153;28;20046;-77
2023/07/29 05:41:40;;;;;;;83.00;51.33;;;;;;;-144.73;100.00;54551.38;4976003;28;20074;-77
2023/07/29 05:44:05;;;;;;;80.40;49.25;;;;;;;-144.73;100.00;54539.06;5020111;28;20475;-77
2023/07/29 05:46:31;;;;;;;86.47;51.63;;;;;;;-144.73;100.00;54539.06;5025506;28;20048;-77
2023/07/29 05:48:56;;;;;;;92.90;54.60;;;;;;;-144.73;100.00;54604.75;4983314;28;20055;-77
2023/07/29 05:51:21;;;;;;;82.15;47.42;;;;;;;-144.73;100.00;54465.16;4987832;28;20037;-77
2023/07/29 05:53:47;;;;;;;90.68;53.40;;;;;;;-144.73;100.00;54539.06;4992313;28;20029;-77
2023/07/29 05:56:12;;;;;;;82.93;51.05;;;;;;;-144.73;100.00;54504.16;4936604;28;20027;-76
2023/07/29 05:58:38;;;;;;;79.32;50.28;;;;;;;-144.73;100.00;54539.06;5003772;28;20081;-76
2023/07/29 06:01:03;;;;;;;78.90;50.05;;;;;;;-144.73;100.00;54510.31;4949762;28;20045;-76
2023/07/29 06:03:28;;;;;;;80.53;51.47;;;;;;;-144.73;100.00;54512.38;4935059;28;20039;-76
2023/07/29 06:05:54;;;;;;;86.38;51.88;;;;;;;-144.73;100.00;54489.81;4931936;28;20038;-76
2023/07/29 06:08:20;;;;;;;93.97;56.35;;;;;;;-144.73;100.00;54539.06;5048292;28;20037;-77
2023/07/29 06:10:45;;;;;;;74.85;50.13;;;;;;;-144.73;100.00;54539.06;4958506;28;20192;-75
2023/07/29 06:13:10;;;;;;;93.78;57.17;;;;;;;-144.73;100.00;54555.47;4983272;28;20040;-76
2023/07/29 06:15:36;;;;;;;91.85;53.45;;;;;;;-144.73;100.00;54518.53;5004701;28;20045;-76
2023/07/29 06:18:01;;;;;;;77.25;46.58;;;;;;;-144.73;100.00;54498.00;4936123;28;20207;-76
2023/07/29 06:20:26;;;;;;;74.45;48.53;;;;;;;-144.73;100.00;54506.22;4969956;28;20024;-76
2023/07/29 06:22:52;;;;;;;60.13;40.38;;;;;;;-144.73;100.00;54528.81;4936208;28;20043;-76
2023/07/29 06:25:17;;;;;;;58.60;39.10;;;;;;;-144.73;100.00;54506.22;4997003;28;20025;-76
2023/07/29 06:27:42;;;;;;;54.97;38.28;;;;;;;-144.73;100.00;54489.81;5008182;28;20037;-76
2023/07/29 06:30:08;;;;;;;50.58;34.35;;;;;;;-144.73;100.00;54539.06;4980875;28;20051;-76
2023/07/29 06:32:34;;;;;;;52.80;36.72;;;;;;;-144.73;100.00;54485.69;4955818;28;20031;-77
2023/07/29 06:35:00;;;;;;;53.03;33.72;;;;;;;-144.73;100.00;54539.06;4976340;28;20029;-76
2023/07/29 06:37:25;;;;;;;48.55;33.65;;;;;;;-144.73;100.00;54502.13;5035103;28;20039;-76
2023/07/29 06:39:51;;;;;;;40.22;29.85;;;;;;;-144.73;100.00;54510.31;5013017;28;20021;-76
2023/07/29 06:42:16;;;;;;;45.38;30.48;;;;;;;-144.73;100.00;54530.84;5015958;28;20061;-76
2023/07/29 06:44:41;;;;;;;48.20;33.15;;;;;;;-144.73;100.00;54489.81;4968665;28;20028;-76
2023/07/29 06:47:07;;;;;;;41.40;29.88;;;;;;;-144.73;100.00;54493.91;5025979;28;20056;-77
2023/07/29 06:49:32;;;;;;;44.75;29.55;;;;;;;-144.73;100.00;54498.00;4970442;28;20042;-76
2023/07/29 06:51:57;;;;;;;43.83;30.92;;;;;;;-144.73;100.00;54522.63;4937539;28;20054;-75
2023/07/29 06:54:26;;;;;;;39.08;27.60;;;;;;;-144.73;100.00;54543.16;4953076;28;20031;-73
2023/07/29 06:56:52;;;;;;;40.35;26.63;;;;;;;-144.73;100.00;54508.28;4952770;28;20506;-73
2023/07/29 06:59:17;;;;;;;42.25;27.98;;;;;;;-144.73;100.00;54567.81;5051922;28;20104;-73
2023/07/29 07:01:43;;;;;;;29.50;24.33;;;;;;;-144.73;100.00;54495.97;4942329;28;20035;-73
2023/07/29 07:04:08;;;;;;;29.33;19.90;;;;;;;-144.73;100.00;54518.53;4940375;28;20027;-73
2023/07/29 07:06:33;;;;;;;44.70;30.55;;;;;;;-144.73;100.00;54518.53;4939157;28;20054;-73
2023/07/29 07:08:59;;;;;;;39.45;29.77;;;;;;;-144.73;100.00;54514.44;4980094;28;20053;-73
2023/07/29 07:11:24;;;;;;;50.63;31.33;;;;;;;-144.73;100.00;54543.16;4991192;28;20391;-73
2023/07/29 07:13:49;;;;;;;33.25;25.17;;;;;;;-144.73;100.00;54493.91;4994899;28;20028;-73
2023/07/29 07:16:15;;;;;;;42.40;30.80;;;;;;;-144.73;100.00;54510.31;4959119;28;20043;-73
2023/07/29 07:18:40;;;;;;;45.35;31.40;;;;;;;-144.73;100.00;54510.31;4972478;28;20034;-73
2023/07/29 07:21:06;;;;;;;47.15;31.65;;;;;;;-144.73;100.00;54543.16;4943232;28;20032;-73
2023/07/29 07:23:31;;;;;;;50.00;31.63;;;;;;;-144.73;100.00;54514.44;4970162;28;20027;-73
2023/07/29 07:25:56;;;;;;;44.20;28.52;;;;;;;-144.73;100.00;54518.53;4938307;28;20070;-73
2023/07/29 07:28:22;;;;;;;36.85;26.13;;;;;;;-144.73;100.00;54518.53;4975557;28;20034;-73
2023/07/29 07:30:47;;;;;;;48.80;30.80;;;;;;;-144.73;100.00;54526.75;4951718;28;20023;-74
2023/07/29 07:33:12;;;;;;;46.05;30.45;;;;;;;-144.73;100.00;54518.53;4935962;29;20039;-73
2023/07/29 07:35:42;;;;;;;41.72;27.30;;;;;;;-144.73;100.00;54555.47;4958922;28;20027;-74
2023/07/29 07:38:09;;;;;;;46.78;29.48;;;;;;;-144.73;100.00;54520.59;4952449;28;20031;-74
2023/07/29 07:40:35;;;;;;;34.45;22.38;;;;;;;-144.73;100.00;54514.44;4934464;28;20069;-74
2023/07/29 07:43:01;;;;;;;38.95;28.25;;;;;;;-144.73;100.00;54491.84;4935562;28;20031;-74
2023/07/29 07:45:26;;;;;;;43.55;27.13;;;;;;;-144.73;100.00;54551.38;4935130;28;20030;-73
2023/07/29 07:47:56;;;;;;;42.40;28.00;;;;;;;-144.73;100.00;54539.06;4934622;28;20035;-74
2023/07/29 07:50:21;;;;;;;34.00;22.02;;;;;;;-144.73;100.00;54489.81;5029904;28;20047;-74
2023/07/29 07:52:47;;;;;;;37.53;23.88;;;;;;;-144.73;100.00;54510.31;4975996;28;20051;-74
2023/07/29 07:55:12;;;;;;;37.05;26.95;;;;;;;-144.73;100.00;54498.00;4977531;28;20073;-74
2023/07/29 07:57:37;;;;;;;38.75;26.15;;;;;;;-144.73;100.00;54514.44;4967142;28;20033;-73
2023/07/29 08:00:04;;;;;;;41.42;26.75;;;;;;;-144.73;100.00;54547.28;4990545;28;20020;-74
2023/07/29 08:02:30;;;;;;;43.60;26.58;;;;;;;-144.73;100.00;54502.13;5014539;28;20128;-74
2023/07/29 08:04:55;;;;;;;30.98;22.77;;;;;;;-144.73;100.00;54498.00;4967406;28;20103;-73
2023/07/29 08:07:21;;;;;;;38.35;23.60;;;;;;;-144.73;100.00;54539.06;5051353;28;20029;-74
2023/07/29 08:09:46;;;;;;;34.30;22.90;;;;;;;-144.73;100.00;54530.84;4960308;28;20023;-73
2023/07/29 08:12:11;;;;;;;30.30;21.23;;;;;;;-144.73;100.00;54543.16;4966498;28;20039;-73
2023/07/29 08:14:37;;;;;;;32.85;22.50;;;;;;;-144.73;100.00;54604.75;4952271;28;20114;-74
2023/07/29 08:17:02;;;;;;;30.50;21.30;;;;;;;-144.73;100.00;54510.31;4939779;28;20039;-74
2023/07/29 08:19:28;;;;;;;31.02;22.80;;;;;;;-144.73;100.00;54522.63;4966577;28;20034;-74
2023/07/29 08:21:53;;;;;;;28.02;20.70;;;;;;;-144.73;100.00;54604.75;4936912;28;20042;-74
2023/07/29 08:24:18;;;;;;;27.67;19.50;;;;;;;-144.73;100.00;54510.31;4975679;28;20038;-74
2023/07/29 08:26:44;;;;;;;28.83;19.85;;;;;;;-144.73;100.00;54539.06;4937419;28;20039;-73
2023/07/29 08:29:09;;;;;;;30.63;19.63;;;;;;;-144.73;100.00;54514.44;4941839;28;20027;-73
2023/07/29 08:31:34;;;;;;;24.17;18.25;;;;;;;-144.73;100.00;54510.31;4978169;28;20036;-73
2023/07/29 08:34:00;;;;;;;23.40;17.63;;;;;;;-144.73;100.00;54493.91;4975845;28;20028;-74
2023/07/29 08:36:26;;;;;;;21.92;17.48;;;;;;;-144.73;100.00;54518.53;4933979;28;20036;-74
2023/07/29 08:38:51;;;;;;;20.67;15.07;;;;;;;-144.73;100.00;54539.06;4947786;28;20079;-74
2023/07/29 08:41:25;;;;;;;23.88;15.13;;;;;;;-144.73;100.00;54522.63;5033404;28;20111;-74
2023/07/29 08:44:21;;;;;;;20.98;15.23;;;;;;;-144.73;100.00;54539.06;4937929;28;20031;-74
2023/07/29 08:46:46;;;;;;;23.90;16.10;;;;;;;-144.73;100.00;54543.16;4959146;28;20032;-73
2023/07/29 08:49:13;;;;;;;26.80;16.05;;;;;;;-144.73;100.00;54512.38;4934113;28;20114;-74
2023/07/29 08:51:41;;;;;;;19.58;15.25;;;;;;;-144.73;100.00;54524.69;4935968;28;20043;-73
2023/07/29 08:54:10;;;;;;;18.10;14.73;;;;;;;-144.73;100.00;54477.47;4934145;28;20078;-74
2023/07/29 08:56:36;;;;;;;22.42;16.45;;;;;;;-144.73;100.00;54518.53;4965294;28;20043;-74
2023/07/29 08:59:02;;;;;;;19.05;15.27;;;;;;;-144.73;100.00;54498.00;4965287;28;20034;-75
2023/07/29 09:01:27;;;;;;;21.02;17.45;;;;;;;-144.73;100.00;54522.63;5049407;28;20037;-74
2023/07/29 09:03:53;;;;;;;21.23;15.80;;;;;;;-144.73;100.00;54473.38;4957576;28;20027;-74
2023/07/29 09:06:22;;;;;;;21.40;16.48;;;;;;;-144.73;100.00;54481.59;4968468;28;20120;-73
2023/07/29 09:08:53;;;;;;;22.73;15.35;;;;;;;-144.73;100.00;54502.13;4954317;28;20050;-74
2023/07/29 09:11:41;;;;;;;23.40;16.58;;;;;;;-144.73;100.00;54526.75;5003607;28;20029;-75
2023/07/29 09:14:10;;;;;;;28.67;16.23;;;;;;;-144.73;100.00;54514.44;5025304;28;20120;-74
2023/07/29 09:16:38;;;;;;;21.10;17.13;;;;;;;-144.73;100.00;54510.31;4991100;28;20033;-74
2023/07/29 09:19:04;;;;;;;22.23;16.30;;;;;;;-144.73;100.00;54506.22;5003453;28;20387;-75
2023/07/29 09:21:29;;;;;;;22.35;16.65;;;;;;;-144.73;100.00;54506.22;4940387;28;20051;-75
2023/07/29 09:24:03;;;;;;;23.33;17.13;;;;;;;-144.73;100.00;54498.00;4942238;28;20355;-74
2023/07/29 09:26:28;;;;;;;24.05;17.05;;;;;;;-144.73;100.00;54481.59;4935874;28;20119;-75
2023/07/29 09:28:58;;;;;;;20.98;15.88;;;;;;;-144.73;100.00;54514.44;4938486;28;20046;-76
2023/07/29 09:31:26;;;;;;;20.25;14.80;;;;;;;-144.73;100.00;54522.63;4972340;28;20033;-75
2023/07/29 09:34:05;;;;;;;25.77;15.48;;;;;;;-144.73;100.00;54469.28;4998558;28;20091;-75
2023/07/29 09:36:32;;;;;;;21.35;15.38;;;;;;;-144.73;100.00;54510.31;4988490;28;20032;-74
2023/07/29 09:38:58;;;;;;;21.08;13.65;;;;;;;-144.73;100.00;54481.59;4941592;28;20131;-75
2023/07/29 09:41:28;;;;;;;17.75;13.40;;;;;;;-144.73;100.00;54456.97;4950276;28;20127;-75
2023/07/29 09:43:58;;;;;;;15.93;11.25;;;;;;;-144.73;100.00;54510.31;4936557;28;20127;-74
2023/07/29 09:46:30;;;;;;;16.73;10.95;;;;;;;-144.73;100.00;54506.22;4950040;28;20069;-75
2023/07/29 09:48:56;;;;;;;15.27;11.35;;;;;;;-144.73;100.00;54489.81;4943747;28;20027;-74
2023/07/29 09:51:22;;;;;;;17.95;13.52;;;;;;;-144.73;100.00;54502.13;4939531;28;20464;-73
2023/07/29 09:53:48;;;;;;;15.43;10.90;;;;;;;-144.73;100.00;54485.69;4950292;28;20513;-74
2023/07/29 09:56:14;;;;;;;14.27;10.63;;;;;;;-144.73;100.00;54498.00;4949348;28;20027;-74
2023/07/29 09:58:39;;;;;;;19.48;11.05;;;;;;;-144.73;100.00;54469.28;4935275;28;20501;-75
2023/07/29 10:01:08;;;;;;;13.68;11.57;;;;;;;-144.73;100.00;54502.13;5037717;28;20036;-74
2023/07/29 10:03:35;;;;;;;16.17;11.50;;;;;;;-144.73;100.00;54506.22;5000447;28;20125;-75
2023/07/29 10:06:06;;;;;;;17.83;12.00;;;;;;;-144.73;100.00;54514.44;4968360;28;20028;-76
2023/07/29 10:08:32;;;;;;;15.75;11.65;;;;;;;-144.73;100.00;54493.91;4944187;28;20027;-76
2023/07/29 10:11:02;;;;;;;18.75;9.25;;;;;;;-144.73;100.00;54452.84;4970879;28;20036;-76
2023/07/29 10:13:28;;;;;;;12.63;7.80;;;;;;;-144.73;100.00;54473.38;4926317;28;20034;-76
2023/07/29 10:15:54;;;;;;;12.23;8.50;;;;;;;-144.73;100.00;54477.47;4936722;28;20036;-76
2023/07/29 10:18:21;;;;;;;7.97;6.00;;;;;;;-144.73;100.00;54495.97;5031003;28;20106;-76
2023/07/29 10:20:50;;;;;;;8.35;7.05;;;;;;;-144.73;100.00;54456.97;4967419;28;20024;-74
2023/07/29 10:23:18;;;;;;;10.00;7.57;;;;;;;-144.73;100.00;54436.44;4932372;28;20129;-76
2023/07/29 10:25:47;;;;;;;9.18;6.63;;;;;;;-144.73;100.00;54434.38;5043822;28;20027;-75
2023/07/29 10:28:15;;;;;;;12.05;6.70;;;;;;;-144.73;100.00;54450.81;4945710;28;20116;-75
2023/07/29 10:30:41;;;;;;;13.68;7.68;;;;;;;-144.73;100.00;54465.16;5037277;28;20027;-76
2023/07/29 10:33:06;;;;;;;8.20;6.57;;;;;;;-144.73;100.00;54481.59;4941995;28;20026;-76
2023/07/29 10:35:33;;;;;;;12.40;6.35;;;;;;;-144.73;100.00;54436.44;4982774;28;20055;-76
2023/07/29 10:37:59;;;;;;;7.00;5.43;;;;;;;-144.73;100.00;54506.22;4946671;28;20066;-76
2023/07/29 10:40:24;;;;;;;7.60;5.07;;;;;;;-144.73;100.00;54481.59;4947105;28;20043;-75
2023/07/29 10:43:08;;;;;;;11.57;5.57;;;;;;;-144.73;100.00;54469.28;4969962;28;20035;-75
2023/07/29 10:45:38;;;;;;;7.07;5.00;;;;;;;-144.73;100.00;54498.00;4943652;28;20044;-76
2023/07/29 10:48:11;;;;;;;7.18;5.07;;;;;;;-144.73;100.00;54415.91;4937730;28;20020;-76
2023/07/29 10:50:36;;;;;;;6.38;4.65;;;;;;;-144.73;100.00;54448.75;4949588;28;20035;-75
2023/07/29 10:53:02;;;;;;;6.80;4.75;;;;;;;-144.73;100.00;54473.38;4967283;28;20046;-77
2023/07/29 10:55:38;;;;;;;9.48;4.57;;;;;;;-144.73;100.00;54510.31;4966983;28;20023;-75